sensor_id;sensor_type;location;lat;lon;timestamp;P1;durP1;ratioP1;P2;durP2;ratioP2
49392;SDS011;35268;42.642;23.308;2024-01-30T00:02:17;6.90;;;3.20;;
49392;SDS011;35268;42.642;23.308;2024-01-30T00:04:43;9.27;;;4.43;;
49392;SDS011;35268;42.642;23.308;2024-01-30T00:07:08;7.68;;;4.10;;
49392;SDS011;35268;42.642;23.308;2024-01-30T00:09:34;11.82;;;4.28;;
49392;SDS011;35268;42.642;23.308;2024-01-30T00:11:59;8.43;;;3.78;;
49392;SDS011;35268;42.642;23.308;2024-01-30T00:14:25;6.95;;;3.47;;
49392;SDS011;35268;42.642;23.308;2024-01-30T00:16:51;5.32;;;2.85;;
49392;SDS011;35268;42.642;23.308;2024-01-30T00:19:16;8.07;;;3.63;;
49392;SDS011;35268;42.642;23.308;2024-01-30T00:21:42;9.23;;;4.32;;
49392;SDS011;35268;42.642;23.308;2024-01-30T00:24:08;6.70;;;3.90;;
49392;SDS011;35268;42.642;23.308;2024-01-30T00:26:33;10.02;;;4.03;;
49392;SDS011;35268;42.642;23.308;2024-01-30T00:28:58;9.38;;;3.95;;
49392;SDS011;35268;42.642;23.308;2024-01-30T00:31:24;7.35;;;3.53;;
49392;SDS011;35268;42.642;23.308;2024-01-30T00:33:49;6.32;;;3.80;;
49392;SDS011;35268;42.642;23.308;2024-01-30T00:36:15;8.70;;;3.28;;
49392;SDS011;35268;42.642;23.308;2024-01-30T00:38:40;7.25;;;3.17;;
49392;SDS011;35268;42.642;23.308;2024-01-30T00:41:09;7.75;;;3.58;;
49392;SDS011;35268;42.642;23.308;2024-01-30T00:43:35;6.95;;;3.85;;
49392;SDS011;35268;42.642;23.308;2024-01-30T00:46:00;7.30;;;3.55;;
49392;SDS011;35268;42.642;23.308;2024-01-30T00:48:26;7.45;;;3.75;;
49392;SDS011;35268;42.642;23.308;2024-01-30T00:50:51;10.52;;;4.15;;
49392;SDS011;35268;42.642;23.308;2024-01-30T00:53:17;9.98;;;3.72;;
49392;SDS011;35268;42.642;23.308;2024-01-30T00:55:42;7.18;;;3.58;;
49392;SDS011;35268;42.642;23.308;2024-01-30T00:58:08;10.60;;;3.30;;
49392;SDS011;35268;42.642;23.308;2024-01-30T01:00:34;7.57;;;3.58;;
49392;SDS011;35268;42.642;23.308;2024-01-30T01:02:59;7.47;;;3.55;;
49392;SDS011;35268;42.642;23.308;2024-01-30T01:05:25;9.43;;;4.53;;
49392;SDS011;35268;42.642;23.308;2024-01-30T01:07:50;7.22;;;3.60;;
49392;SDS011;35268;42.642;23.308;2024-01-30T01:10:16;9.07;;;3.30;;
49392;SDS011;35268;42.642;23.308;2024-01-30T01:12:43;8.50;;;4.38;;
49392;SDS011;35268;42.642;23.308;2024-01-30T01:15:09;7.18;;;3.30;;
49392;SDS011;35268;42.642;23.308;2024-01-30T01:17:35;8.45;;;3.70;;
49392;SDS011;35268;42.642;23.308;2024-01-30T01:20:01;7.35;;;3.38;;
49392;SDS011;35268;42.642;23.308;2024-01-30T01:22:27;6.45;;;3.15;;
49392;SDS011;35268;42.642;23.308;2024-01-30T01:24:52;9.07;;;4.28;;
49392;SDS011;35268;42.642;23.308;2024-01-30T01:27:18;9.73;;;4.43;;
49392;SDS011;35268;42.642;23.308;2024-01-30T01:29:43;11.57;;;4.72;;
49392;SDS011;35268;42.642;23.308;2024-01-30T01:32:08;9.52;;;4.63;;
49392;SDS011;35268;42.642;23.308;2024-01-30T01:34:34;10.25;;;4.30;;
49392;SDS011;35268;42.642;23.308;2024-01-30T01:36:59;8.70;;;4.40;;
49392;SDS011;35268;42.642;23.308;2024-01-30T01:39:25;7.88;;;4.22;;
49392;SDS011;35268;42.642;23.308;2024-01-30T01:41:50;8.70;;;3.45;;
49392;SDS011;35268;42.642;23.308;2024-01-30T01:44:17;9.73;;;4.18;;
49392;SDS011;35268;42.642;23.308;2024-01-30T01:46:43;7.97;;;4.68;;
49392;SDS011;35268;42.642;23.308;2024-01-30T01:49:09;10.60;;;4.50;;
49392;SDS011;35268;42.642;23.308;2024-01-30T01:51:35;10.98;;;4.95;;
49392;SDS011;35268;42.642;23.308;2024-01-30T01:54:04;7.82;;;4.57;;
49392;SDS011;35268;42.642;23.308;2024-01-30T01:56:31;10.10;;;4.50;;
49392;SDS011;35268;42.642;23.308;2024-01-30T01:58:59;11.55;;;4.55;;
49392;SDS011;35268;42.642;23.308;2024-01-30T02:01:29;12.77;;;4.90;;
49392;SDS011;35268;42.642;23.308;2024-01-30T02:03:57;9.77;;;5.35;;
49392;SDS011;35268;42.642;23.308;2024-01-30T02:06:23;12.35;;;5.30;;
49392;SDS011;35268;42.642;23.308;2024-01-30T02:08:49;8.27;;;4.68;;
49392;SDS011;35268;42.642;23.308;2024-01-30T02:11:14;12.73;;;4.43;;
49392;SDS011;35268;42.642;23.308;2024-01-30T02:13:41;12.95;;;4.75;;
49392;SDS011;35268;42.642;23.308;2024-01-30T02:16:07;8.88;;;4.57;;
49392;SDS011;35268;42.642;23.308;2024-01-30T02:18:33;6.50;;;3.58;;
49392;SDS011;35268;42.642;23.308;2024-01-30T02:20:58;9.93;;;3.70;;
49392;SDS011;35268;42.642;23.308;2024-01-30T02:23:28;5.88;;;3.50;;
49392;SDS011;35268;42.642;23.308;2024-01-30T02:25:57;8.55;;;3.42;;
49392;SDS011;35268;42.642;23.308;2024-01-30T02:28:23;9.02;;;3.92;;
49392;SDS011;35268;42.642;23.308;2024-01-30T02:30:48;7.07;;;3.58;;
49392;SDS011;35268;42.642;23.308;2024-01-30T02:33:14;7.35;;;3.35;;
49392;SDS011;35268;42.642;23.308;2024-01-30T02:35:39;11.07;;;4.00;;
49392;SDS011;35268;42.642;23.308;2024-01-30T02:38:05;5.65;;;3.28;;
49392;SDS011;35268;42.642;23.308;2024-01-30T02:40:30;7.28;;;3.63;;
49392;SDS011;35268;42.642;23.308;2024-01-30T02:42:57;14.32;;;4.10;;
49392;SDS011;35268;42.642;23.308;2024-01-30T02:45:23;9.32;;;3.83;;
49392;SDS011;35268;42.642;23.308;2024-01-30T02:47:49;6.30;;;3.35;;
49392;SDS011;35268;42.642;23.308;2024-01-30T02:50:14;7.57;;;3.42;;
49392;SDS011;35268;42.642;23.308;2024-01-30T02:52:40;6.72;;;3.63;;
49392;SDS011;35268;42.642;23.308;2024-01-30T02:55:05;5.65;;;2.72;;
49392;SDS011;35268;42.642;23.308;2024-01-30T02:57:31;7.22;;;3.38;;
49392;SDS011;35268;42.642;23.308;2024-01-30T02:59:56;8.07;;;3.80;;
49392;SDS011;35268;42.642;23.308;2024-01-30T03:02:22;7.03;;;3.47;;
49392;SDS011;35268;42.642;23.308;2024-01-30T03:04:47;5.40;;;3.10;;
49392;SDS011;35268;42.642;23.308;2024-01-30T03:07:13;7.75;;;3.70;;
49392;SDS011;35268;42.642;23.308;2024-01-30T03:09:38;10.35;;;4.20;;
49392;SDS011;35268;42.642;23.308;2024-01-30T03:12:04;7.80;;;3.72;;
49392;SDS011;35268;42.642;23.308;2024-01-30T03:14:30;6.68;;;3.17;;
49392;SDS011;35268;42.642;23.308;2024-01-30T03:16:56;8.35;;;3.97;;
49392;SDS011;35268;42.642;23.308;2024-01-30T03:19:22;7.22;;;3.30;;
49392;SDS011;35268;42.642;23.308;2024-01-30T03:21:48;9.95;;;3.92;;
49392;SDS011;35268;42.642;23.308;2024-01-30T03:24:13;9.98;;;4.00;;
49392;SDS011;35268;42.642;23.308;2024-01-30T03:26:39;8.95;;;3.85;;
49392;SDS011;35268;42.642;23.308;2024-01-30T03:29:04;9.02;;;4.05;;
49392;SDS011;35268;42.642;23.308;2024-01-30T03:31:29;12.25;;;3.97;;
49392;SDS011;35268;42.642;23.308;2024-01-30T03:33:55;8.82;;;3.67;;
49392;SDS011;35268;42.642;23.308;2024-01-30T03:36:20;7.40;;;3.40;;
49392;SDS011;35268;42.642;23.308;2024-01-30T03:38:46;7.00;;;3.40;;
49392;SDS011;35268;42.642;23.308;2024-01-30T03:41:11;9.18;;;2.60;;
49392;SDS011;35268;42.642;23.308;2024-01-30T03:43:36;6.68;;;2.65;;
49392;SDS011;35268;42.642;23.308;2024-01-30T03:46:02;9.45;;;4.10;;
49392;SDS011;35268;42.642;23.308;2024-01-30T03:48:28;7.07;;;3.42;;
49392;SDS011;35268;42.642;23.308;2024-01-30T03:50:54;5.93;;;3.17;;
49392;SDS011;35268;42.642;23.308;2024-01-30T03:53:19;7.05;;;3.30;;
49392;SDS011;35268;42.642;23.308;2024-01-30T03:55:45;9.45;;;4.13;;
49392;SDS011;35268;42.642;23.308;2024-01-30T03:58:10;7.13;;;3.70;;
49392;SDS011;35268;42.642;23.308;2024-01-30T04:00:36;11.63;;;3.80;;
49392;SDS011;35268;42.642;23.308;2024-01-30T04:03:01;6.75;;;3.38;;
49392;SDS011;35268;42.642;23.308;2024-01-30T04:05:27;7.32;;;3.17;;
49392;SDS011;35268;42.642;23.308;2024-01-30T04:07:52;9.02;;;3.05;;
49392;SDS011;35268;42.642;23.308;2024-01-30T04:10:18;8.52;;;3.40;;
49392;SDS011;35268;42.642;23.308;2024-01-30T04:12:43;9.07;;;4.00;;
49392;SDS011;35268;42.642;23.308;2024-01-30T04:15:09;14.00;;;4.00;;
49392;SDS011;35268;42.642;23.308;2024-01-30T04:17:34;6.28;;;3.83;;
49392;SDS011;35268;42.642;23.308;2024-01-30T04:19:59;16.50;;;3.85;;
49392;SDS011;35268;42.642;23.308;2024-01-30T04:22:25;7.03;;;3.55;;
49392;SDS011;35268;42.642;23.308;2024-01-30T04:24:50;5.85;;;2.90;;
49392;SDS011;35268;42.642;23.308;2024-01-30T04:27:15;5.53;;;2.83;;
49392;SDS011;35268;42.642;23.308;2024-01-30T04:29:41;8.75;;;2.70;;
49392;SDS011;35268;42.642;23.308;2024-01-30T04:32:06;10.25;;;3.05;;
49392;SDS011;35268;42.642;23.308;2024-01-30T04:34:32;10.23;;;3.10;;
49392;SDS011;35268;42.642;23.308;2024-01-30T04:36:57;5.65;;;2.60;;
49392;SDS011;35268;42.642;23.308;2024-01-30T04:39:23;4.93;;;2.50;;
49392;SDS011;35268;42.642;23.308;2024-01-30T04:41:48;7.15;;;2.83;;
49392;SDS011;35268;42.642;23.308;2024-01-30T04:44:14;5.43;;;2.28;;
49392;SDS011;35268;42.642;23.308;2024-01-30T04:46:39;7.85;;;2.67;;
49392;SDS011;35268;42.642;23.308;2024-01-30T04:49:05;9.15;;;2.92;;
49392;SDS011;35268;42.642;23.308;2024-01-30T04:51:32;9.82;;;2.88;;
49392;SDS011;35268;42.642;23.308;2024-01-30T04:53:58;5.82;;;2.70;;
49392;SDS011;35268;42.642;23.308;2024-01-30T04:56:24;12.20;;;2.78;;
49392;SDS011;35268;42.642;23.308;2024-01-30T04:58:49;8.77;;;3.67;;
49392;SDS011;35268;42.642;23.308;2024-01-30T05:01:15;6.40;;;3.42;;
49392;SDS011;35268;42.642;23.308;2024-01-30T05:03:41;18.55;;;4.60;;
49392;SDS011;35268;42.642;23.308;2024-01-30T05:06:07;12.77;;;4.38;;
49392;SDS011;35268;42.642;23.308;2024-01-30T05:08:32;19.10;;;4.90;;
49392;SDS011;35268;42.642;23.308;2024-01-30T05:11:00;21.15;;;5.15;;
49392;SDS011;35268;42.642;23.308;2024-01-30T05:13:25;14.80;;;5.30;;
49392;SDS011;35268;42.642;23.308;2024-01-30T05:15:51;7.00;;;3.80;;
49392;SDS011;35268;42.642;23.308;2024-01-30T05:18:16;14.32;;;4.30;;
49392;SDS011;35268;42.642;23.308;2024-01-30T05:20:42;12.55;;;4.70;;
49392;SDS011;35268;42.642;23.308;2024-01-30T05:23:07;12.68;;;4.32;;
49392;SDS011;35268;42.642;23.308;2024-01-30T05:25:33;11.77;;;4.30;;
49392;SDS011;35268;42.642;23.308;2024-01-30T05:27:58;15.27;;;3.63;;
49392;SDS011;35268;42.642;23.308;2024-01-30T05:30:24;9.52;;;3.70;;
49392;SDS011;35268;42.642;23.308;2024-01-30T05:32:49;24.23;;;4.63;;
49392;SDS011;35268;42.642;23.308;2024-01-30T05:35:15;17.35;;;3.40;;
49392;SDS011;35268;42.642;23.308;2024-01-30T05:37:40;17.23;;;3.55;;
49392;SDS011;35268;42.642;23.308;2024-01-30T05:40:06;8.95;;;3.58;;
49392;SDS011;35268;42.642;23.308;2024-01-30T05:42:32;10.65;;;4.18;;
49392;SDS011;35268;42.642;23.308;2024-01-30T05:44:57;14.80;;;4.10;;
49392;SDS011;35268;42.642;23.308;2024-01-30T05:47:22;9.50;;;3.97;;
49392;SDS011;35268;42.642;23.308;2024-01-30T05:49:48;10.93;;;4.07;;
49392;SDS011;35268;42.642;23.308;2024-01-30T05:52:13;17.90;;;4.50;;
49392;SDS011;35268;42.642;23.308;2024-01-30T05:54:40;23.70;;;4.43;;
49392;SDS011;35268;42.642;23.308;2024-01-30T05:57:05;16.17;;;3.63;;
49392;SDS011;35268;42.642;23.308;2024-01-30T05:59:31;31.17;;;4.20;;
49392;SDS011;35268;42.642;23.308;2024-01-30T06:01:57;13.82;;;4.43;;
49392;SDS011;35268;42.642;23.308;2024-01-30T06:04:22;21.35;;;4.38;;
49392;SDS011;35268;42.642;23.308;2024-01-30T06:06:48;18.55;;;3.90;;
49392;SDS011;35268;42.642;23.308;2024-01-30T06:09:13;12.88;;;5.35;;
49392;SDS011;35268;42.642;23.308;2024-01-30T06:11:39;13.52;;;5.03;;
49392;SDS011;35268;42.642;23.308;2024-01-30T06:14:04;23.75;;;6.25;;
49392;SDS011;35268;42.642;23.308;2024-01-30T06:16:30;29.33;;;7.05;;
49392;SDS011;35268;42.642;23.308;2024-01-30T06:18:56;22.80;;;8.32;;
49392;SDS011;35268;42.642;23.308;2024-01-30T06:21:21;21.02;;;7.95;;
49392;SDS011;35268;42.642;23.308;2024-01-30T06:23:49;22.00;;;6.88;;
49392;SDS011;35268;42.642;23.308;2024-01-30T06:26:14;20.42;;;6.38;;
49392;SDS011;35268;42.642;23.308;2024-01-30T06:28:40;11.18;;;4.93;;
49392;SDS011;35268;42.642;23.308;2024-01-30T06:31:05;14.57;;;5.68;;
49392;SDS011;35268;42.642;23.308;2024-01-30T06:33:30;19.55;;;5.40;;
49392;SDS011;35268;42.642;23.308;2024-01-30T06:35:56;20.52;;;6.50;;
49392;SDS011;35268;42.642;23.308;2024-01-30T06:38:21;12.32;;;4.60;;
49392;SDS011;35268;42.642;23.308;2024-01-30T06:40:47;16.10;;;5.90;;
49392;SDS011;35268;42.642;23.308;2024-01-30T06:43:12;23.70;;;6.47;;
49392;SDS011;35268;42.642;23.308;2024-01-30T06:45:37;24.40;;;7.57;;
49392;SDS011;35268;42.642;23.308;2024-01-30T06:48:03;19.50;;;4.68;;
49392;SDS011;35268;42.642;23.308;2024-01-30T06:50:29;12.10;;;5.32;;
49392;SDS011;35268;42.642;23.308;2024-01-30T06:52:54;16.05;;;3.58;;
49392;SDS011;35268;42.642;23.308;2024-01-30T06:55:19;5.82;;;2.85;;
49392;SDS011;35268;42.642;23.308;2024-01-30T06:57:45;9.75;;;3.22;;
49392;SDS011;35268;42.642;23.308;2024-01-30T07:00:10;5.63;;;2.17;;
49392;SDS011;35268;42.642;23.308;2024-01-30T07:02:36;3.47;;;1.65;;
49392;SDS011;35268;42.642;23.308;2024-01-30T07:05:02;5.38;;;2.05;;
49392;SDS011;35268;42.642;23.308;2024-01-30T07:07:30;3.72;;;1.77;;
49392;SDS011;35268;42.642;23.308;2024-01-30T07:09:56;6.55;;;2.10;;
49392;SDS011;35268;42.642;23.308;2024-01-30T07:12:24;4.93;;;2.28;;
49392;SDS011;35268;42.642;23.308;2024-01-30T07:14:51;5.78;;;1.90;;
49392;SDS011;35268;42.642;23.308;2024-01-30T07:17:17;6.50;;;1.80;;
49392;SDS011;35268;42.642;23.308;2024-01-30T07:19:42;4.55;;;1.80;;
49392;SDS011;35268;42.642;23.308;2024-01-30T07:22:08;7.53;;;1.80;;
49392;SDS011;35268;42.642;23.308;2024-01-30T07:24:33;3.40;;;1.58;;
49392;SDS011;35268;42.642;23.308;2024-01-30T07:26:59;14.23;;;2.42;;
49392;SDS011;35268;42.642;23.308;2024-01-30T07:29:24;16.15;;;2.28;;
49392;SDS011;35268;42.642;23.308;2024-01-30T07:31:50;4.55;;;1.75;;
49392;SDS011;35268;42.642;23.308;2024-01-30T07:34:15;3.03;;;1.40;;
49392;SDS011;35268;42.642;23.308;2024-01-30T07:36:41;6.30;;;1.60;;
49392;SDS011;35268;42.642;23.308;2024-01-30T07:39:07;4.28;;;1.65;;
49392;SDS011;35268;42.642;23.308;2024-01-30T07:41:32;4.13;;;1.98;;
49392;SDS011;35268;42.642;23.308;2024-01-30T07:43:58;7.95;;;2.25;;
49392;SDS011;35268;42.642;23.308;2024-01-30T07:46:23;4.65;;;1.73;;
49392;SDS011;35268;42.642;23.308;2024-01-30T07:48:48;8.10;;;2.03;;
49392;SDS011;35268;42.642;23.308;2024-01-30T07:51:14;3.42;;;1.58;;
49392;SDS011;35268;42.642;23.308;2024-01-30T07:53:42;32.05;;;3.60;;
49392;SDS011;35268;42.642;23.308;2024-01-30T07:56:08;6.55;;;2.45;;
49392;SDS011;35268;42.642;23.308;2024-01-30T07:58:33;5.80;;;1.95;;
49392;SDS011;35268;42.642;23.308;2024-01-30T08:00:59;5.43;;;2.05;;
49392;SDS011;35268;42.642;23.308;2024-01-30T08:03:25;8.65;;;2.03;;
49392;SDS011;35268;42.642;23.308;2024-01-30T08:05:51;15.88;;;1.90;;
49392;SDS011;35268;42.642;23.308;2024-01-30T08:08:16;10.30;;;1.88;;
49392;SDS011;35268;42.642;23.308;2024-01-30T08:10:42;4.55;;;1.95;;
49392;SDS011;35268;42.642;23.308;2024-01-30T08:13:07;4.40;;;1.90;;
49392;SDS011;35268;42.642;23.308;2024-01-30T08:15:34;5.05;;;2.55;;
49392;SDS011;35268;42.642;23.308;2024-01-30T08:17:59;13.25;;;3.00;;
49392;SDS011;35268;42.642;23.308;2024-01-30T08:20:25;9.98;;;2.60;;
49392;SDS011;35268;42.642;23.308;2024-01-30T08:22:51;13.07;;;3.47;;
49392;SDS011;35268;42.642;23.308;2024-01-30T08:25:17;7.53;;;2.33;;
49392;SDS011;35268;42.642;23.308;2024-01-30T08:27:42;9.40;;;3.10;;
49392;SDS011;35268;42.642;23.308;2024-01-30T08:30:08;10.82;;;3.33;;
49392;SDS011;35268;42.642;23.308;2024-01-30T08:32:34;11.88;;;2.38;;
49392;SDS011;35268;42.642;23.308;2024-01-30T08:34:59;6.20;;;2.22;;
49392;SDS011;35268;42.642;23.308;2024-01-30T08:37:28;10.95;;;3.05;;
49392;SDS011;35268;42.642;23.308;2024-01-30T08:39:54;6.88;;;2.50;;
49392;SDS011;35268;42.642;23.308;2024-01-30T08:42:20;5.30;;;2.45;;
49392;SDS011;35268;42.642;23.308;2024-01-30T08:44:47;7.57;;;2.83;;
49392;SDS011;35268;42.642;23.308;2024-01-30T08:47:17;8.07;;;3.03;;
49392;SDS011;35268;42.642;23.308;2024-01-30T08:49:43;8.18;;;3.00;;
49392;SDS011;35268;42.642;23.308;2024-01-30T08:52:09;14.27;;;3.10;;
49392;SDS011;35268;42.642;23.308;2024-01-30T08:54:36;6.07;;;2.72;;
49392;SDS011;35268;42.642;23.308;2024-01-30T08:57:01;4.75;;;2.22;;
49392;SDS011;35268;42.642;23.308;2024-01-30T08:59:27;10.00;;;2.60;;
49392;SDS011;35268;42.642;23.308;2024-01-30T09:01:52;9.35;;;2.75;;
49392;SDS011;35268;42.642;23.308;2024-01-30T09:04:20;12.95;;;2.50;;
49392;SDS011;35268;42.642;23.308;2024-01-30T09:06:46;21.23;;;3.35;;
49392;SDS011;35268;42.642;23.308;2024-01-30T09:09:11;6.30;;;3.30;;
49392;SDS011;35268;42.642;23.308;2024-01-30T09:11:37;7.10;;;2.60;;
49392;SDS011;35268;42.642;23.308;2024-01-30T09:14:02;12.13;;;3.67;;
49392;SDS011;35268;42.642;23.308;2024-01-30T09:16:28;7.07;;;3.28;;
49392;SDS011;35268;42.642;23.308;2024-01-30T09:18:53;8.60;;;3.00;;
49392;SDS011;35268;42.642;23.308;2024-01-30T09:21:19;6.80;;;2.70;;
49392;SDS011;35268;42.642;23.308;2024-01-30T09:23:44;8.95;;;3.00;;
49392;SDS011;35268;42.642;23.308;2024-01-30T09:26:09;5.55;;;3.03;;
49392;SDS011;35268;42.642;23.308;2024-01-30T09:28:35;5.78;;;2.78;;
49392;SDS011;35268;42.642;23.308;2024-01-30T09:31:01;8.82;;;2.50;;
49392;SDS011;35268;42.642;23.308;2024-01-30T09:33:26;6.25;;;3.20;;
49392;SDS011;35268;42.642;23.308;2024-01-30T09:35:51;9.48;;;2.95;;
49392;SDS011;35268;42.642;23.308;2024-01-30T09:38:17;6.55;;;3.17;;
49392;SDS011;35268;42.642;23.308;2024-01-30T09:40:42;10.80;;;3.22;;
49392;SDS011;35268;42.642;23.308;2024-01-30T09:43:08;8.55;;;3.08;;
49392;SDS011;35268;42.642;23.308;2024-01-30T09:45:38;5.40;;;2.90;;
49392;SDS011;35268;42.642;23.308;2024-01-30T09:48:06;7.03;;;3.58;;
49392;SDS011;35268;42.642;23.308;2024-01-30T09:50:32;15.35;;;3.70;;
49392;SDS011;35268;42.642;23.308;2024-01-30T09:53:01;9.50;;;3.85;;
49392;SDS011;35268;42.642;23.308;2024-01-30T09:55:27;6.75;;;3.38;;
49392;SDS011;35268;42.642;23.308;2024-01-30T09:57:52;14.18;;;4.82;;
49392;SDS011;35268;42.642;23.308;2024-01-30T10:00:18;10.63;;;4.57;;
49392;SDS011;35268;42.642;23.308;2024-01-30T10:02:43;13.38;;;3.90;;
49392;SDS011;35268;42.642;23.308;2024-01-30T10:05:10;8.65;;;4.30;;
49392;SDS011;35268;42.642;23.308;2024-01-30T10:07:49;10.32;;;4.22;;
49392;SDS011;35268;42.642;23.308;2024-01-30T10:10:15;7.72;;;3.42;;
49392;SDS011;35268;42.642;23.308;2024-01-30T10:12:41;7.43;;;3.33;;
49392;SDS011;35268;42.642;23.308;2024-01-30T10:15:06;12.15;;;3.75;;
49392;SDS011;35268;42.642;23.308;2024-01-30T10:17:33;11.32;;;3.15;;
49392;SDS011;35268;42.642;23.308;2024-01-30T10:20:04;13.00;;;4.10;;
49392;SDS011;35268;42.642;23.308;2024-01-30T10:22:30;8.52;;;4.00;;
49392;SDS011;35268;42.642;23.308;2024-01-30T10:24:55;12.32;;;4.25;;
49392;SDS011;35268;42.642;23.308;2024-01-30T10:27:27;11.25;;;3.58;;
49392;SDS011;35268;42.642;23.308;2024-01-30T10:29:54;20.77;;;6.18;;
49392;SDS011;35268;42.642;23.308;2024-01-30T10:32:20;11.13;;;3.67;;
49392;SDS011;35268;42.642;23.308;2024-01-30T10:34:46;15.50;;;4.20;;
49392;SDS011;35268;42.642;23.308;2024-01-30T10:37:12;7.38;;;2.90;;
49392;SDS011;35268;42.642;23.308;2024-01-30T10:39:40;17.90;;;3.53;;
49392;SDS011;35268;42.642;23.308;2024-01-30T10:42:11;8.50;;;4.30;;
49392;SDS011;35268;42.642;23.308;2024-01-30T10:47:34;8.15;;;4.18;;
49392;SDS011;35268;42.642;23.308;2024-01-30T10:50:01;10.00;;;4.75;;
49392;SDS011;35268;42.642;23.308;2024-01-30T10:52:28;8.30;;;3.75;;
49392;SDS011;35268;42.642;23.308;2024-01-30T10:54:55;7.07;;;3.22;;
49392;SDS011;35268;42.642;23.308;2024-01-30T10:57:24;6.85;;;3.67;;
49392;SDS011;35268;42.642;23.308;2024-01-30T10:59:51;12.43;;;3.47;;
49392;SDS011;35268;42.642;23.308;2024-01-30T11:02:22;7.03;;;3.40;;
49392;SDS011;35268;42.642;23.308;2024-01-30T11:04:55;8.93;;;3.17;;
49392;SDS011;35268;42.642;23.308;2024-01-30T11:07:26;7.18;;;3.55;;
49392;SDS011;35268;42.642;23.308;2024-01-30T11:09:59;7.27;;;3.00;;
49392;SDS011;35268;42.642;23.308;2024-01-30T11:12:26;9.63;;;3.92;;
49392;SDS011;35268;42.642;23.308;2024-01-30T11:17:53;12.45;;;3.67;;
49392;SDS011;35268;42.642;23.308;2024-01-30T11:20:22;9.40;;;3.90;;
49392;SDS011;35268;42.642;23.308;2024-01-30T11:22:51;8.63;;;3.83;;
49392;SDS011;35268;42.642;23.308;2024-01-30T11:25:19;6.20;;;3.22;;
49392;SDS011;35268;42.642;23.308;2024-01-30T11:27:46;6.93;;;3.20;;
49392;SDS011;35268;42.642;23.308;2024-01-30T11:30:23;13.10;;;4.05;;
49392;SDS011;35268;42.642;23.308;2024-01-30T11:35:24;5.90;;;3.15;;
49392;SDS011;35268;42.642;23.308;2024-01-30T11:37:49;7.13;;;3.70;;
49392;SDS011;35268;42.642;23.308;2024-01-30T11:40:15;14.35;;;3.30;;
49392;SDS011;35268;42.642;23.308;2024-01-30T11:42:41;10.02;;;4.00;;
49392;SDS011;35268;42.642;23.308;2024-01-30T11:45:08;12.70;;;2.80;;
49392;SDS011;35268;42.642;23.308;2024-01-30T11:47:35;13.63;;;3.67;;
49392;SDS011;35268;42.642;23.308;2024-01-30T11:50:01;9.65;;;3.88;;
49392;SDS011;35268;42.642;23.308;2024-01-30T11:52:28;7.60;;;3.65;;
49392;SDS011;35268;42.642;23.308;2024-01-30T11:54:54;4.95;;;2.67;;
49392;SDS011;35268;42.642;23.308;2024-01-30T11:57:19;5.45;;;2.78;;
49392;SDS011;35268;42.642;23.308;2024-01-30T11:59:45;9.20;;;2.53;;
49392;SDS011;35268;42.642;23.308;2024-01-30T12:02:15;8.07;;;2.45;;
49392;SDS011;35268;42.642;23.308;2024-01-30T12:04:40;6.90;;;3.03;;
49392;SDS011;35268;42.642;23.308;2024-01-30T12:07:06;4.85;;;2.55;;
49392;SDS011;35268;42.642;23.308;2024-01-30T12:09:32;6.70;;;2.72;;
49392;SDS011;35268;42.642;23.308;2024-01-30T12:11:59;5.28;;;2.47;;
49392;SDS011;35268;42.642;23.308;2024-01-30T12:14:24;8.45;;;2.95;;
49392;SDS011;35268;42.642;23.308;2024-01-30T12:16:51;14.10;;;2.80;;
49392;SDS011;35268;42.642;23.308;2024-01-30T12:19:26;7.07;;;2.95;;
49392;SDS011;35268;42.642;23.308;2024-01-30T12:21:57;10.10;;;3.05;;
49392;SDS011;35268;42.642;23.308;2024-01-30T12:24:27;5.72;;;2.72;;
49392;SDS011;35268;42.642;23.308;2024-01-30T12:26:56;11.35;;;3.17;;
49392;SDS011;35268;42.642;23.308;2024-01-30T12:29:25;13.95;;;3.90;;
49392;SDS011;35268;42.642;23.308;2024-01-30T12:31:53;6.22;;;3.00;;
49392;SDS011;35268;42.642;23.308;2024-01-30T12:34:19;5.63;;;2.90;;
49392;SDS011;35268;42.642;23.308;2024-01-30T12:36:46;7.00;;;2.35;;
49392;SDS011;35268;42.642;23.308;2024-01-30T12:39:14;8.80;;;3.00;;
49392;SDS011;35268;42.642;23.308;2024-01-30T12:41:40;5.25;;;2.72;;
49392;SDS011;35268;42.642;23.308;2024-01-30T12:44:05;10.13;;;3.15;;
49392;SDS011;35268;42.642;23.308;2024-01-30T12:46:33;5.45;;;2.75;;
49392;SDS011;35268;42.642;23.308;2024-01-30T12:48:59;4.57;;;2.80;;
49392;SDS011;35268;42.642;23.308;2024-01-30T12:51:25;5.38;;;2.78;;
49392;SDS011;35268;42.642;23.308;2024-01-30T12:53:51;7.90;;;3.33;;
49392;SDS011;35268;42.642;23.308;2024-01-30T12:56:16;7.63;;;2.70;;
49392;SDS011;35268;42.642;23.308;2024-01-30T12:58:41;15.32;;;3.35;;
49392;SDS011;35268;42.642;23.308;2024-01-30T13:01:08;6.03;;;3.17;;
49392;SDS011;35268;42.642;23.308;2024-01-30T13:03:33;5.93;;;3.03;;
49392;SDS011;35268;42.642;23.308;2024-01-30T13:05:59;10.80;;;3.67;;
49392;SDS011;35268;42.642;23.308;2024-01-30T13:08:24;7.68;;;3.47;;
49392;SDS011;35268;42.642;23.308;2024-01-30T13:10:50;15.80;;;3.67;;
49392;SDS011;35268;42.642;23.308;2024-01-30T13:13:15;10.07;;;3.38;;
49392;SDS011;35268;42.642;23.308;2024-01-30T13:15:40;8.13;;;3.90;;
49392;SDS011;35268;42.642;23.308;2024-01-30T13:18:06;9.32;;;3.83;;
49392;SDS011;35268;42.642;23.308;2024-01-30T13:20:31;10.48;;;4.35;;
49392;SDS011;35268;42.642;23.308;2024-01-30T13:22:58;9.45;;;4.07;;
49392;SDS011;35268;42.642;23.308;2024-01-30T13:25:23;13.30;;;3.92;;
49392;SDS011;35268;42.642;23.308;2024-01-30T13:27:49;9.43;;;3.38;;
49392;SDS011;35268;42.642;23.308;2024-01-30T13:30:14;14.30;;;3.40;;
49392;SDS011;35268;42.642;23.308;2024-01-30T13:32:40;12.25;;;3.20;;
49392;SDS011;35268;42.642;23.308;2024-01-30T13:35:09;7.65;;;3.58;;
49392;SDS011;35268;42.642;23.308;2024-01-30T13:37:34;12.32;;;3.83;;
49392;SDS011;35268;42.642;23.308;2024-01-30T13:40:00;6.57;;;3.70;;
49392;SDS011;35268;42.642;23.308;2024-01-30T13:42:26;15.50;;;4.28;;
49392;SDS011;35268;42.642;23.308;2024-01-30T13:44:51;19.48;;;4.70;;
49392;SDS011;35268;42.642;23.308;2024-01-30T13:47:16;11.63;;;3.60;;
49392;SDS011;35268;42.642;23.308;2024-01-30T13:49:43;8.88;;;4.70;;
49392;SDS011;35268;42.642;23.308;2024-01-30T13:52:09;6.05;;;3.10;;
49392;SDS011;35268;42.642;23.308;2024-01-30T13:54:34;9.32;;;4.10;;
49392;SDS011;35268;42.642;23.308;2024-01-30T13:57:00;9.30;;;4.00;;
49392;SDS011;35268;42.642;23.308;2024-01-30T13:59:25;9.10;;;4.07;;
49392;SDS011;35268;42.642;23.308;2024-01-30T14:01:51;11.65;;;4.60;;
49392;SDS011;35268;42.642;23.308;2024-01-30T14:04:16;10.70;;;3.60;;
49392;SDS011;35268;42.642;23.308;2024-01-30T14:06:42;8.90;;;3.33;;
49392;SDS011;35268;42.642;23.308;2024-01-30T14:09:07;15.10;;;4.78;;
49392;SDS011;35268;42.642;23.308;2024-01-30T14:11:33;11.68;;;5.10;;
49392;SDS011;35268;42.642;23.308;2024-01-30T14:13:58;8.02;;;4.45;;
49392;SDS011;35268;42.642;23.308;2024-01-30T14:16:24;8.32;;;4.82;;
49392;SDS011;35268;42.642;23.308;2024-01-30T14:18:49;12.93;;;4.05;;
49392;SDS011;35268;42.642;23.308;2024-01-30T14:21:15;13.05;;;4.38;;
49392;SDS011;35268;42.642;23.308;2024-01-30T14:23:40;7.90;;;4.10;;
49392;SDS011;35268;42.642;23.308;2024-01-30T14:26:06;12.98;;;4.05;;
49392;SDS011;35268;42.642;23.308;2024-01-30T14:28:31;16.20;;;5.50;;
49392;SDS011;35268;42.642;23.308;2024-01-30T14:30:57;10.32;;;4.43;;
49392;SDS011;35268;42.642;23.308;2024-01-30T14:33:22;9.18;;;4.35;;